Time;durP1;ratioP1;P1;durP2;ratioP2;P2;SDS_P1;SDS_P2;PMS_P1;PMS_P2;Temp;Humidity;BMP_temperature;BMP_pressure;BME280_temperature;BME280_humidity;BME280_pressure;Samples;Min_cycle;Max_cycle;Signal;HPM_P1;HPM_P2
2022/01/18 00:00:29;;;;;;;27.30;7.47;;;;;;;5.62;100.00;103747.94;4990135;28;20061;-76
2022/01/18 00:02:56;;;;;;;37.55;7.50;;;;;;;5.54;100.00;103748.91;5005464;28;20064;-76
2022/01/18 00:05:21;;;;;;;38.05;7.55;;;;;;;5.63;100.00;103755.03;4991105;28;20112;-75
2022/01/18 00:07:47;;;;;;;32.00;6.97;;;;;;;5.52;100.00;103740.06;5002995;28;20180;-75
2022/01/18 00:10:13;;;;;;;31.73;7.97;;;;;;;5.48;100.00;103751.63;4992035;28;20118;-75
2022/01/18 00:18:05;;;;;;;34.53;7.95;;;;;;;5.52;100.00;103753.38;5000737;28;20396;-76
2022/01/18 00:23:25;;;;;;;46.72;7.88;;;;;;;5.48;100.00;103750.72;5002834;28;20036;-76
2022/01/18 00:25:54;;;;;;;31.70;8.70;;;;;;;5.45;100.00;103750.75;5002416;28;20042;-76
2022/01/18 00:28:21;;;;;;;37.40;7.88;;;;;;;5.54;100.00;103758.69;4988673;28;20480;-77
2022/01/18 00:31:15;;;;;;;37.25;9.35;;;;;;;5.47;100.00;103749.88;5006760;28;20064;-76
2022/01/18 00:34:03;;;;;;;36.38;7.95;;;;;;;5.54;100.00;103756.91;5004984;28;20046;-76
2022/01/18 00:39:03;;;;;;;;;;;;;;;5.53;100.00;103771.13;5004373;28;20029;-76
2022/01/18 00:41:28;;;;;;;28.13;7.63;;;;;;;5.55;100.00;103750.69;4985081;28;19968;-76
2022/01/18 00:43:54;;;;;;;30.50;8.20;;;;;;;5.61;100.00;103765.72;4989972;28;20026;-76
2022/01/18 00:46:20;;;;;;;32.50;8.68;;;;;;;5.63;100.00;103771.94;4989500;28;20075;-76
2022/01/18 00:48:45;;;;;;;51.72;9.40;;;;;;;5.56;100.00;103778.22;5004676;28;20121;-76
2022/01/18 00:51:13;;;;;;;40.83;8.75;;;;;;;5.46;100.00;103768.53;5004438;28;20057;-76
2022/01/18 00:53:41;;;;;;;34.58;8.00;;;;;;;5.48;100.00;103783.63;5004544;28;20045;-76
2022/01/18 00:56:19;;;;;;;43.63;8.95;;;;;;;5.51;100.00;103788.94;4986086;28;20027;-76
2022/01/18 00:58:47;;;;;;;40.17;8.88;;;;;;;5.46;100.00;103768.53;5003587;28;20026;-76
2022/01/18 01:01:13;;;;;;;33.67;8.35;;;;;;;5.42;100.00;103777.47;5005954;28;20080;-76
2022/01/18 01:03:38;;;;;;;32.45;8.43;;;;;;;5.43;100.00;103777.44;4988690;28;20486;-76
2022/01/18 01:06:05;;;;;;;29.98;8.25;;;;;;;5.44;100.00;103765.88;5006195;28;20033;-76
2022/01/18 01:08:30;;;;;;;37.50;9.38;;;;;;;5.51;100.00;103778.25;5003699;28;20037;-76
2022/01/18 01:10:56;;;;;;;30.92;9.27;;;;;;;5.54;100.00;103774.69;4989766;28;20025;-76
2022/01/18 01:13:23;;;;;;;43.05;9.98;;;;;;;5.49;100.00;103771.16;5004529;28;20416;-76
2022/01/18 01:16:06;;;;;;;42.10;8.65;;;;;;;5.62;100.00;103790.59;4985833;28;20172;-76
2022/01/18 01:43:13;;;;;;;28.88;8.70;;;;;;;5.52;100.00;103752.47;5005855;28;20084;-76
2022/01/18 01:45:38;;;;;;;28.75;8.52;;;;;;;5.63;100.00;103768.38;5005753;28;20506;-76
2022/01/18 01:48:04;;;;;;;37.55;9.05;;;;;;;5.60;100.00;103758.63;5006059;28;20033;-76
2022/01/18 01:51:13;;;;;;;27.35;9.45;;;;;;;5.53;100.00;103751.59;4990368;28;20030;-76
2022/01/18 01:53:21;;;;;;;39.05;9.00;;;;;;;5.58;100.00;103755.09;5000889;28;20455;-76
2022/01/18 01:55:47;;;;;;;30.85;9.10;;;;;;;5.62;100.00;103774.59;5007427;28;20037;-76
2022/01/18 01:58:13;;;;;;;30.20;8.40;;;;;;;5.52;100.00;103758.72;4993260;28;20108;-75
2022/01/18 02:00:48;;;;;;;27.75;8.07;;;;;;;5.40;100.00;103751.72;5002532;28;20026;-76
2022/01/18 02:03:15;;;;;;;33.55;8.23;;;;;;;5.55;100.00;103766.69;4993920;28;20113;-76
2022/01/18 02:05:40;;;;;;;31.90;9.50;;;;;;;5.52;100.00;103773.81;5008046;28;20104;-76
2022/01/18 02:08:07;;;;;;;40.95;9.82;;;;;;;5.43;100.00;103761.44;5008770;28;20108;-76
2022/01/18 02:10:36;;;;;;;28.52;9.27;;;;;;;5.43;100.00;103771.25;4991429;28;20053;-76
2022/01/18 02:13:03;;;;;;;30.10;8.43;;;;;;;5.44;100.00;103779.22;4999659;28;20019;-76
2022/01/18 02:15:28;;;;;;;30.77;10.02;;;;;;;5.37;100.00;103762.41;4990533;28;20061;-77
2022/01/18 02:23:26;;;;;;;36.08;10.40;;;;;;;5.28;100.00;103764.25;5002339;28;20075;-77
2022/01/18 02:25:51;;;;;;;30.52;10.05;;;;;;;5.21;100.00;103766.06;5007257;28;20029;-77
2022/01/18 02:28:18;;;;;;;34.45;11.00;;;;;;;5.21;100.00;103769.63;5009694;28;20034;-77
2022/01/18 02:30:44;;;;;;;36.95;10.52;;;;;;;5.20;100.00;103756.31;4990537;28;20025;-77
2022/01/18 02:33:10;;;;;;;35.33;10.00;;;;;;;5.29;100.00;103771.34;4991498;28;20109;-77
2022/01/18 02:35:36;;;;;;;27.10;10.13;;;;;;;5.30;100.00;103770.47;5017692;28;20140;-76
2022/01/18 02:38:02;;;;;;;37.17;10.15;;;;;;;5.20;100.00;103756.31;5006133;28;20029;-77
2022/01/18 02:40:27;;;;;;;38.50;10.50;;;;;;;5.14;100.00;103764.38;5008745;28;20160;-76
2022/01/18 02:42:59;;;;;;;34.72;9.73;;;;;;;5.10;100.00;103759.06;4987790;28;20033;-76
2022/01/18 02:45:25;;;;;;;33.42;10.18;;;;;;;5.19;100.00;103758.09;5007826;28;20038;-76
2022/01/18 02:47:51;;;;;;;48.90;11.48;;;;;;;5.25;100.00;103770.47;4991492;28;20026;-77
2022/01/18 02:50:17;;;;;;;58.15;11.60;;;;;;;5.33;100.00;103775.75;5005319;28;20038;-76
2022/01/18 02:52:43;;;;;;;47.92;11.60;;;;;;;5.27;100.00;103763.38;5006069;28;20030;-76
2022/01/18 02:55:08;;;;;;;42.30;13.48;;;;;;;5.35;100.00;103780.19;5005700;28;20038;-77
2022/01/18 02:57:42;;;;;;;55.72;11.85;;;;;;;5.36;100.00;103771.28;4989839;28;20044;-76
2022/01/18 03:00:19;;;;;;;42.80;11.32;;;;;;;5.31;100.00;103766.88;5005197;28;20029;-77
2022/01/18 03:05:28;;;;;;;56.88;12.20;;;;;;;5.22;100.00;103755.41;5006610;28;20105;-76
2022/01/18 03:07:54;;;;;;;40.15;11.63;;;;;;;5.24;100.00;103756.28;4989414;28;20026;-76
2022/01/18 03:10:19;;;;;;;38.58;12.30;;;;;;;5.29;100.00;103766.03;4991930;28;20069;-77
2022/01/18 03:12:45;;;;;;;48.47;11.68;;;;;;;5.30;100.00;103763.34;4988878;28;20025;-77
2022/01/18 03:15:10;;;;;;;33.00;11.15;;;;;;;5.27;100.00;103765.16;5007082;28;20054;-76
2022/01/18 03:17:35;;;;;;;58.88;13.25;;;;;;;5.28;100.00;103770.47;5005358;28;20468;-76
2022/01/18 03:20:02;;;;;;;38.67;12.57;;;;;;;5.34;100.00;103783.75;5012305;28;20360;-77
2022/01/18 03:22:28;;;;;;;46.38;12.77;;;;;;;5.26;100.00;103774.91;5003669;28;20037;-77
2022/01/18 03:30:08;;;;;;;46.72;11.40;;;;;;;5.31;100.00;103783.75;5006801;28;20117;-77
2022/01/18 03:32:34;;;;;;;48.83;13.30;;;;;;;5.37;100.00;103789.03;5004765;28;20117;-76
2022/01/18 03:34:59;;;;;;;47.75;11.57;;;;;;;5.45;100.00;103790.72;4991140;28;20471;-77
2022/01/18 03:37:24;;;;;;;49.15;13.02;;;;;;;5.39;100.00;103776.59;5004125;28;20034;-77
2022/01/18 03:39:49;;;;;;;30.02;10.68;;;;;;;5.35;100.00;103772.19;4990966;28;20449;-76
2022/01/18 03:45:02;;;;;;;46.58;13.32;;;;;;;5.28;100.00;103766.94;5003596;28;20483;-77
2022/01/18 03:47:28;;;;;;;44.33;12.75;;;;;;;5.39;100.00;103784.59;4991950;28;20065;-77
2022/01/18 03:49:53;;;;;;;49.25;12.63;;;;;;;5.38;100.00;103779.25;4989916;28;20060;-76
2022/01/18 03:52:19;;;;;;;40.85;11.10;;;;;;;5.32;100.00;103772.22;4987318;28;20025;-76
2022/01/18 03:54:47;;;;;;;40.50;12.60;;;;;;;5.22;100.00;103770.50;4986558;28;20026;-76
2022/01/18 03:57:13;;;;;;;49.85;15.55;;;;;;;5.34;100.00;103781.06;4991634;28;20631;-76
2022/01/18 03:59:39;;;;;;;39.78;12.82;;;;;;;5.21;100.00;103780.28;5003752;28;20037;-76
2022/01/18 04:02:06;;;;;;;55.67;14.50;;;;;;;5.20;100.00;103780.28;5006075;28;20030;-76
2022/01/18 04:04:32;;;;;;;38.03;12.40;;;;;;;5.09;100.00;103781.28;5003375;28;20029;-76
2022/01/18 04:06:57;;;;;;;34.47;12.43;;;;;;;5.08;100.00;103775.94;5001924;28;20487;-76
2022/01/18 04:09:22;;;;;;;44.28;12.27;;;;;;;5.19;100.00;103786.50;4985627;28;20026;-76
2022/01/18 04:11:48;;;;;;;47.10;12.95;;;;;;;5.25;100.00;103802.44;4986080;28;20028;-76
2022/01/18 04:14:13;;;;;;;42.45;12.73;;;;;;;5.21;100.00;103787.38;5004625;28;20100;-76
2022/01/18 04:17:00;;;;;;;39.58;13.82;;;;;;;5.29;100.00;103798.00;4988367;28;20065;-76
2022/01/18 04:27:25;;;;;;;48.35;13.90;;;;;;;5.37;100.00;103810.34;5003886;28;20104;-76
2022/01/18 04:29:50;;;;;;;47.88;13.63;;;;;;;5.35;100.00;103803.25;5004826;28;20045;-76
2022/01/18 04:32:16;;;;;;;50.13;14.90;;;;;;;5.27;100.00;103800.66;5005632;28;20022;-76
2022/01/18 04:34:41;;;;;;;51.70;15.18;;;;;;;5.21;100.00;103788.28;5003949;28;20048;-76
2022/01/18 04:37:06;;;;;;;52.92;15.30;;;;;;;5.34;100.00;103809.47;4990361;28;20030;-76
2022/01/18 04:39:39;;;;;;;53.97;14.65;;;;;;;5.37;100.00;103809.47;5004184;28;20036;-76
2022/01/18 04:42:12;;;;;;;65.18;17.30;;;;;;;5.13;100.00;103800.75;5010722;28;20049;-76
2022/01/18 04:49:50;;;;;;;;;;;;;;;5.25;100.00;103803.34;5011852;28;20028;-76
2022/01/18 04:52:16;;;;;;;65.70;18.25;;;;;;;5.19;100.00;103795.41;5004282;28;19913;-76
2022/01/18 04:54:44;;;;;;;71.20;17.40;;;;;;;5.19;100.00;103794.50;4985022;28;20109;-76
2022/01/18 04:59:36;;;;;;;50.22;14.63;;;;;;;5.14;100.00;103805.19;5009336;28;20453;-76
2022/01/18 05:02:02;;;;;;;43.90;13.77;;;;;;;5.18;100.00;103809.63;5004456;28;20391;-77
2022/01/18 05:04:28;;;;;;;46.72;14.25;;;;;;;5.16;100.00;103815.84;5004689;28;20038;-76
2022/01/18 05:06:58;;;;;;;44.15;14.93;;;;;;;5.01;100.00;103815.06;4992824;28;20125;-77
2022/01/18 05:09:23;;;;;;;49.45;14.80;;;;;;;5.03;100.00;103825.72;4990539;28;20044;-76
2022/01/18 05:12:01;;;;;;;49.58;14.55;;;;;;;4.85;100.00;103822.25;5014285;28;20057;-76
2022/01/18 05:14:30;;;;;;;51.53;14.68;;;;;;;4.76;100.00;103828.50;5009901;28;20065;-77
2022/01/18 05:24:29;;;;;;;47.85;14.65;;;;;;;4.72;100.00;103817.91;5008185;28;20033;-75
2022/01/18 05:26:56;;;;;;;47.85;12.85;;;;;;;4.78;100.00;103824.06;5010868;28;20025;-76
2022/01/18 05:29:21;;;;;;;53.50;14.27;;;;;;;4.65;100.00;103814.34;4995796;28;20053;-75
2022/01/18 05:31:47;;;;;;;48.95;12.80;;;;;;;4.69;100.00;103818.78;4987307;28;20049;-75
2022/01/18 05:34:12;;;;;;;53.30;13.35;;;;;;;4.72;100.00;103813.44;5009435;28;20029;-75
2022/01/18 05:36:38;;;;;;;36.00;11.50;;;;;;;4.71;100.00;103811.69;5006170;28;20480;-75
2022/01/18 05:39:05;;;;;;;41.20;11.90;;;;;;;4.80;100.00;103818.72;5004573;28;20051;-75
2022/01/18 05:41:31;;;;;;;48.67;12.45;;;;;;;4.77;100.00;103814.31;5005009;28;20036;-75
2022/01/18 05:43:56;;;;;;;49.28;11.27;;;;;;;4.75;100.00;103800.13;4990922;28;20022;-75
2022/01/18 05:46:22;;;;;;;46.53;12.55;;;;;;;4.80;100.00;103795.66;4983121;28;20037;-75
2022/01/18 05:48:47;;;;;;;43.67;11.60;;;;;;;4.81;100.00;103807.19;5007697;28;20610;-75
2022/01/18 05:51:13;;;;;;;45.75;11.48;;;;;;;4.81;100.00;103799.19;5007725;28;20509;-75
2022/01/18 05:53:39;;;;;;;46.30;11.77;;;;;;;4.82;100.00;103814.28;5004637;28;20514;-76
2022/01/18 05:56:06;;;;;;;40.80;11.60;;;;;;;4.82;100.00;103808.94;4990018;28;20029;-74
2022/01/18 05:58:32;;;;;;;49.30;12.20;;;;;;;4.75;100.00;103800.13;4990776;28;20030;-73
2022/01/18 06:00:57;;;;;;;40.85;12.23;;;;;;;4.70;100.00;103803.72;4987160;28;20075;-72
2022/01/18 06:03:29;;;;;;;43.90;11.48;;;;;;;4.75;100.00;103805.44;4991274;28;20057;-75
2022/01/18 06:08:39;;;;;;;41.80;9.93;;;;;;;4.74;100.00;103805.47;5007329;28;20380;-77
2022/01/18 06:11:05;;;;;;;45.30;12.18;;;;;;;4.70;100.00;103803.72;5007830;28;20029;-74
2022/01/18 06:13:30;;;;;;;41.65;12.13;;;;;;;4.78;100.00;103816.09;4988358;28;20048;-72
2022/01/18 06:15:55;;;;;;;46.97;11.27;;;;;;;4.84;100.00;103820.47;4993123;28;20022;-73
2022/01/18 06:18:22;;;;;;;44.67;12.00;;;;;;;4.81;100.00;103812.50;4989005;28;20041;-73
2022/01/18 06:20:47;;;;;;;36.50;11.57;;;;;;;4.80;100.00;103808.06;5006912;28;20072;-71
2022/01/18 06:23:13;;;;;;;40.65;10.82;;;;;;;4.84;100.00;103814.28;5006068;28;20034;-72
2022/01/18 06:25:40;;;;;;;46.25;11.38;;;;;;;4.83;100.00;103816.03;5007374;28;20105;-72
2022/01/18 06:28:05;;;;;;;45.67;11.88;;;;;;;4.85;100.00;103824.91;4988923;28;20022;-72
2022/01/18 06:30:31;;;;;;;47.65;11.52;;;;;;;4.92;100.00;103828.41;5006853;28;20036;-72
2022/01/18 06:32:56;;;;;;;48.90;12.02;;;;;;;4.85;100.00;103824.03;5013734;28;20032;-72
2022/01/18 06:35:22;;;;;;;45.97;12.85;;;;;;;4.91;100.00;103827.53;5004994;28;20038;-73
2022/01/18 06:37:47;;;;;;;64.13;13.02;;;;;;;4.82;100.00;103822.25;4992313;28;20891;-72
2022/01/18 06:40:13;;;;;;;44.50;11.82;;;;;;;4.88;100.00;103829.34;5008204;28;20034;-73
2022/01/18 06:42:38;;;;;;;58.65;12.75;;;;;;;4.88;100.00;103832.88;5014457;28;20026;-72
2022/01/18 06:45:04;;;;;;;50.35;13.13;;;;;;;4.83;100.00;103815.19;5008363;28;20036;-73
2022/01/18 06:47:30;;;;;;;65.25;15.25;;;;;;;4.77;100.00;103808.97;4990038;28;20030;-72
2022/01/18 06:49:55;;;;;;;59.15;14.25;;;;;;;4.72;100.00;103817.91;5005956;28;20038;-72
2022/01/18 06:52:20;;;;;;;59.13;14.05;;;;;;;4.75;100.00;103823.22;5005414;28;20372;-73
2022/01/18 06:54:46;;;;;;;47.08;12.40;;;;;;;4.75;100.00;103826.75;5013453;28;20040;-76
2022/01/18 06:57:11;;;;;;;52.17;13.30;;;;;;;4.79;100.00;103830.25;4988960;28;20033;-73
2022/01/18 06:59:37;;;;;;;51.53;13.00;;;;;;;4.72;100.00;103821.44;5013904;28;20064;-75
2022/01/18 07:02:04;;;;;;;55.88;12.85;;;;;;;4.74;100.00;103818.78;5005430;28;20109;-74
2022/01/18 07:04:29;;;;;;;47.05;13.77;;;;;;;4.76;100.00;103820.53;5009435;28;20037;-74
2022/01/18 07:06:55;;;;;;;53.72;13.93;;;;;;;4.80;100.00;103832.94;5004267;28;20565;-71
2022/01/18 07:09:23;;;;;;;51.17;12.40;;;;;;;4.69;100.00;103818.78;4988625;28;20483;-74
2022/01/18 07:11:53;;;;;;;43.92;13.65;;;;;;;4.77;100.00;103840.03;4984998;28;20038;-74
2022/01/18 07:14:18;;;;;;;62.45;13.95;;;;;;;4.80;100.00;103832.03;4988839;28;20084;-74
2022/01/18 07:16:43;;;;;;;53.97;15.10;;;;;;;4.72;100.00;103829.41;5002661;28;20516;-74
2022/01/18 07:19:09;;;;;;;60.58;15.50;;;;;;;4.84;100.00;103844.44;5000790;28;20046;-74
2022/01/18 07:21:34;;;;;;;60.85;15.75;;;;;;;4.82;100.00;103851.53;5004237;28;20109;-74
2022/01/18 07:24:15;;;;;;;56.28;15.38;;;;;;;4.78;100.00;103848.03;5001730;28;20061;-74
2022/01/18 07:26:41;;;;;;;57.08;15.02;;;;;;;4.80;100.00;103850.66;5000299;28;20026;-73
2022/01/18 07:29:07;;;;;;;73.53;15.73;;;;;;;4.80;100.00;103845.34;5002591;28;20510;-74
2022/01/18 07:31:32;;;;;;;61.88;16.00;;;;;;;4.78;100.00;103844.47;5002516;28;20056;-73
2022/01/18 07:33:57;;;;;;;64.78;14.93;;;;;;;4.74;100.00;103845.41;4990685;28;20195;-74
2022/01/18 07:36:23;;;;;;;54.75;14.88;;;;;;;4.80;100.00;103859.56;5006053;28;20033;-74
2022/01/18 07:38:48;;;;;;;51.08;13.55;;;;;;;4.74;100.00;103854.25;5006991;28;20120;-74
2022/01/18 07:41:14;;;;;;;61.42;14.02;;;;;;;4.79;100.00;103863.09;5004323;28;20026;-74
2022/01/18 07:43:40;;;;;;;52.42;15.23;;;;;;;4.71;100.00;103862.25;5006985;28;20025;-73
2022/01/18 07:46:06;;;;;;;53.47;13.38;;;;;;;4.70;100.00;103859.59;5005239;28;20026;-73
2022/01/18 07:48:31;;;;;;;55.13;14.52;;;;;;;4.73;100.00;103867.59;5003362;28;20022;-73
2022/01/18 07:50:58;;;;;;;49.53;13.90;;;;;;;4.71;100.00;103864.91;5004457;28;20057;-73
2022/01/18 07:53:24;;;;;;;50.97;11.32;;;;;;;4.70;100.00;103870.25;5002747;28;20033;-73
2022/01/18 07:55:49;;;;;;;55.80;11.82;;;;;;;4.46;100.00;103874.78;5001699;28;20030;-74
2022/01/18 07:58:15;;;;;;;81.60;12.55;;;;;;;4.38;100.00;103873.91;5003653;28;20474;-74
2022/01/18 08:00:40;;;;;;;84.15;12.07;;;;;;;4.59;100.00;103873.84;5000297;28;20539;-74
2022/01/18 08:03:06;;;;;;;96.10;12.63;;;;;;;4.26;100.00;103867.72;5009070;28;20513;-74
2022/01/18 08:05:31;;;;;;;47.58;9.35;;;;;;;4.18;100.00;103858.91;5000706;28;20030;-73
2022/01/18 08:07:57;;;;;;;36.47;8.75;;;;;;;4.20;100.00;103873.06;5006440;28;20037;-73
2022/01/18 08:10:30;;;;;;;47.42;8.80;;;;;;;4.19;100.00;103863.31;4987931;28;20061;-73
2022/01/18 08:12:55;;;;;;;28.40;8.13;;;;;;;4.21;100.00;103864.22;5005781;28;20124;-74
2022/01/18 08:15:22;;;;;;;73.10;11.57;;;;;;;4.14;100.00;103862.44;5004251;28;20479;-74
2022/01/18 08:17:49;;;;;;;77.55;9.70;;;;;;;4.11;100.00;103873.09;5001472;28;20021;-74
2022/01/18 08:20:15;;;;;;;73.47;10.45;;;;;;;4.05;100.00;103866.00;5003634;28;20045;-74
2022/01/18 08:22:42;;;;;;;51.28;9.30;;;;;;;3.95;100.00;103869.56;5003082;28;20033;-74
2022/01/18 08:25:08;;;;;;;30.75;7.70;;;;;;;4.02;100.00;103880.19;5000953;28;20037;-73
2022/01/18 08:27:33;;;;;;;71.80;12.90;;;;;;;3.86;100.00;103870.47;4988383;28;20103;-73
2022/01/18 08:29:59;;;;;;;57.45;9.95;;;;;;;3.81;100.00;103859.84;5000571;28;20037;-73
2022/01/18 08:32:24;;;;;;;48.80;9.15;;;;;;;3.97;100.00;103870.44;5006721;28;20128;-73
2022/01/18 08:34:49;;;;;;;56.28;9.65;;;;;;;3.97;100.00;103859.81;5001161;28;20033;-73
2022/01/18 08:37:15;;;;;;;45.00;9.05;;;;;;;4.04;100.00;103864.25;5004472;28;20064;-73
2022/01/18 08:39:41;;;;;;;36.95;7.97;;;;;;;4.07;100.00;103872.22;5006197;28;20040;-73
2022/01/18 08:42:06;;;;;;;41.25;8.15;;;;;;;4.13;100.00;103871.31;5009500;28;20065;-73
2022/01/18 08:44:32;;;;;;;29.55;7.85;;;;;;;4.12;100.00;103858.91;5001166;28;20468;-72
2022/01/18 08:46:57;;;;;;;25.95;6.75;;;;;;;3.92;100.00;103864.25;5008014;28;20133;-72
2022/01/18 08:49:22;;;;;;;41.90;7.72;;;;;;;3.83;100.00;103862.47;5005628;28;20088;-72
2022/01/18 08:51:48;;;;;;;40.83;7.68;;;;;;;3.89;100.00;103878.44;5007304;28;20761;-73
2022/01/18 08:54:13;;;;;;;24.70;6.72;;;;;;;3.93;100.00;103884.63;5005963;28;20476;-74
2022/01/18 08:56:38;;;;;;;30.90;6.93;;;;;;;3.75;100.00;103860.72;5008662;28;20048;-74
2022/01/18 08:59:04;;;;;;;30.27;7.80;;;;;;;3.82;100.00;103872.25;5003185;28;20068;-74
2022/01/18 09:01:29;;;;;;;19.23;6.57;;;;;;;3.73;100.00;103883.75;5004905;28;20030;-74
2022/01/18 09:03:54;;;;;;;19.15;6.32;;;;;;;3.66;100.00;103884.66;5005692;28;20030;-74
2022/01/18 09:06:22;;;;;;;23.77;6.82;;;;;;;3.69;100.00;103875.78;5005434;28;20049;-74
2022/01/18 09:08:55;;;;;;;31.45;7.40;;;;;;;3.74;100.00;103882.84;5003836;28;20084;-74
2022/01/18 09:11:21;;;;;;;23.80;7.60;;;;;;;3.74;100.00;103887.31;5001417;28;20029;-74
2022/01/18 09:13:46;;;;;;;42.15;9.02;;;;;;;3.77;100.00;103895.28;5003938;28;20030;-74
2022/01/18 09:16:11;;;;;;;37.08;10.48;;;;;;;3.69;100.00;103900.59;5004449;28;20443;-75
2022/01/18 09:18:37;;;;;;;83.32;12.95;;;;;;;3.62;100.00;103893.50;5006041;28;20034;-73
2022/01/18 09:21:03;;;;;;;25.33;8.02;;;;;;;3.66;100.00;103887.31;4995659;28;20108;-74
2022/01/18 09:23:29;;;;;;;36.92;9.20;;;;;;;3.79;100.00;103895.25;5004009;28;20060;-73
2022/01/18 09:25:54;;;;;;;34.03;8.18;;;;;;;3.80;100.00;103897.94;5006348;28;20112;-73
2022/01/18 09:28:19;;;;;;;26.88;8.60;;;;;;;3.80;100.00;103884.66;5003611;28;20033;-74
2022/01/18 09:30:45;;;;;;;46.25;8.70;;;;;;;3.95;100.00;103889.06;5009075;28;20037;-74
2022/01/18 09:33:10;;;;;;;32.42;8.18;;;;;;;4.11;100.00;103894.34;5003112;28;20095;-73
2022/01/18 09:35:38;;;;;;;56.63;9.20;;;;;;;4.16;100.00;103879.28;5006293;28;20025;-74
2022/01/18 09:38:03;;;;;;;37.97;9.38;;;;;;;4.15;100.00;103878.38;5003999;28;20025;-74
2022/01/18 09:40:30;;;;;;;44.03;11.98;;;;;;;4.27;100.00;103888.09;5005067;28;20062;-73
2022/01/18 09:43:00;;;;;;;29.20;8.90;;;;;;;4.38;100.00;103895.19;5017404;28;20423;-73
2022/01/18 09:45:27;;;;;;;24.48;8.55;;;;;;;4.44;100.00;103895.19;5004311;28;20120;-73
2022/01/18 09:47:54;;;;;;;42.28;9.95;;;;;;;4.46;100.00;103898.72;5002118;28;20037;-73
2022/01/18 09:50:29;;;;;;;32.63;9.25;;;;;;;4.39;100.00;103904.94;5014537;28;20117;-73
2022/01/18 09:52:56;;;;;;;33.88;8.98;;;;;;;4.36;100.00;103895.22;4985503;28;20041;-73
2022/01/18 09:55:23;;;;;;;27.17;8.05;;;;;;;4.45;100.00;103908.47;5009240;28;20032;-73
2022/01/18 09:57:50;;;;;;;25.67;7.72;;;;;;;4.50;100.00;103906.69;4995324;28;20163;-73
2022/01/18 10:00:16;;;;;;;26.60;8.00;;;;;;;4.57;100.00;103910.22;5007068;28;20068;-73
2022/01/18 10:02:42;;;;;;;45.03;8.32;;;;;;;4.60;100.00;103912.88;5006715;28;20041;-73
2022/01/18 10:05:22;;;;;;;30.30;7.07;;;;;;;4.58;100.00;103909.31;4993789;28;20026;-73
2022/01/18 10:07:58;;;;;;;26.45;7.85;;;;;;;4.56;100.00;103907.56;5008174;28;20036;-73
2022/01/18 10:10:39;;;;;;;25.75;7.00;;;;;;;4.66;100.00;103909.28;4994978;28;20568;-74
2022/01/18 10:13:04;;;;;;;28.48;7.20;;;;;;;4.62;100.00;103913.75;5006021;28;20116;-73
2022/01/18 10:15:30;;;;;;;30.15;7.80;;;;;;;4.62;100.00;103911.09;4993109;28;20618;-74
2022/01/18 10:18:07;;;;;;;30.38;8.88;;;;;;;4.67;100.00;103908.41;5009041;28;20515;-73
2022/01/18 10:20:48;;;;;;;29.55;8.02;;;;;;;4.76;100.00;103911.03;5020244;28;20125;-73
2022/01/18 10:23:23;;;;;;;28.83;7.82;;;;;;;4.88;100.00;103911.88;4988902;28;20022;-74
2022/01/18 10:25:51;;;;;;;29.63;7.93;;;;;;;4.94;100.00;103898.53;5004446;28;20030;-73
2022/01/18 10:28:33;;;;;;;23.13;7.80;;;;;;;5.06;100.00;103908.22;5007310;28;20097;-74
2022/01/18 10:31:06;;;;;;;30.83;8.43;;;;;;;5.12;100.00;103905.53;4993334;28;21282;-74
2022/01/18 10:33:37;;;;;;;24.40;7.88;;;;;;;5.27;100.00;103922.34;5007614;28;20097;-74
2022/01/18 10:36:12;;;;;;;25.90;8.00;;;;;;;5.34;100.00;103911.63;5004590;28;20034;-74
2022/01/18 10:38:42;;;;;;;30.88;8.13;;;;;;;5.45;100.00;103916.00;5015752;28;20040;-73
2022/01/18 10:41:27;;;;;;;32.92;8.77;;;;;;;5.33;100.00;103901.88;4990185;28;20487;-74
2022/01/18 10:44:14;;;;;;;36.05;9.05;;;;;;;5.43;100.00;103905.34;4988155;28;20547;-75
2022/01/18 10:46:40;;;;;;;30.52;9.13;;;;;;;5.46;100.00;103897.34;5006473;28;20049;-73
2022/01/18 10:49:06;;;;;;;36.40;8.75;;;;;;;5.53;100.00;103901.75;5008602;28;20392;-74
2022/01/18 10:51:36;;;;;;;28.33;8.93;;;;;;;5.62;100.00;103895.44;5008439;28;20025;-73
2022/01/18 10:54:04;;;;;;;28.75;8.85;;;;;;;5.79;100.00;103891.75;5004853;28;20052;-74
2022/01/18 10:56:43;;;;;;;36.45;9.85;;;;;;;5.71;100.00;103894.47;5008253;28;20025;-74
2022/01/18 10:59:24;;;;;;;24.33;8.13;;;;;;;5.84;100.00;103888.13;5006339;28;20681;-74
2022/01/18 11:02:10;;;;;;;32.72;8.90;;;;;;;5.93;100.00;103881.84;5000266;28;20380;-74
2022/01/18 11:04:36;;;;;;;26.75;8.55;;;;;;;6.05;100.00;103885.31;5022476;28;20060;-74
2022/01/18 11:07:03;;;;;;;27.80;8.38;;;;;;;6.07;100.00;103887.09;5007010;28;20029;-74
2022/01/18 11:09:29;;;;;;;28.27;9.35;;;;;;;6.04;100.00;103871.13;5016211;28;20030;-74
2022/01/18 11:11:54;;;;;;;30.10;9.18;;;;;;;6.18;100.00;103872.75;5007211;28;20052;-74
2022/01/18 11:14:21;;;;;;;24.15;8.40;;;;;;;6.20;100.00;103860.28;5008441;28;20071;-74
2022/01/18 11:16:48;;;;;;;26.10;9.25;;;;;;;6.35;100.00;103872.56;5008211;28;20053;-74
2022/01/18 11:19:30;;;;;;;29.90;8.52;;;;;;;6.32;100.00;103868.16;5004539;28;20022;-74
2022/01/18 11:22:02;;;;;;;24.05;8.20;;;;;;;6.33;100.00;103869.03;5009512;28;20029;-74
2022/01/18 11:24:29;;;;;;;24.00;8.95;;;;;;;6.39;100.00;103867.16;4987773;28;20033;-73
2022/01/18 11:26:54;;;;;;;22.67;10.30;;;;;;;6.47;100.00;103864.44;5009121;28;20565;-74
2022/01/18 11:29:21;;;;;;;29.33;11.32;;;;;;;6.40;100.00;103847.56;5005911;28;20065;-74
2022/01/18 11:31:50;;;;;;;24.88;9.05;;;;;;;6.52;100.00;103856.34;4990058;28;20030;-74
2022/01/18 11:34:46;;;;;;;28.27;9.30;;;;;;;6.58;100.00;103859.81;5005108;28;20029;-74
2022/01/18 11:37:38;;;;;;;23.55;8.43;;;;;;;6.64;100.00;103858.84;5019688;28;20037;-74
2022/01/18 11:40:10;;;;;;;23.92;8.82;;;;;;;6.76;100.00;103865.81;5006897;28;20054;-73
2022/01/18 11:42:46;;;;;;;24.20;9.00;;;;;;;6.83;100.00;103866.66;5015819;28;20753;-74
2022/01/18 11:45:34;;;;;;;26.88;9.00;;;;;;;6.99;100.00;103868.19;5005122;28;20591;-73
2022/01/18 11:48:12;;;;;;;26.08;8.98;;;;;;;7.00;100.00;103861.94;5010520;28;20037;-74
2022/01/18 11:50:44;;;;;;;28.63;9.55;;;;;;;7.17;100.00;103871.50;5004858;28;20045;-73
2022/01/18 11:53:26;;;;;;;21.45;7.70;;;;;;;7.11;100.00;103839.53;5007689;28;20145;-73
2022/01/18 11:55:54;;;;;;;30.17;8.73;;;;;;;7.26;100.00;103855.31;5007666;28;20026;-73
2022/01/18 11:58:21;;;;;;;25.23;8.27;;;;;;;7.21;100.00;103854.50;4989982;28;20034;-74
2022/01/18 12:00:50;;;;;;;22.05;7.65;;;;;;;7.33;100.00;103862.34;5005783;28;20126;-74
2022/01/18 12:03:25;;;;;;;24.88;8.50;;;;;;;7.24;100.00;103866.97;4991001;28;20763;-75
2022/01/18 12:05:51;;;;;;;27.95;9.13;;;;;;;7.22;100.00;103871.44;5006340;28;20060;-75
2022/01/18 12:08:41;;;;;;;22.83;9.23;;;;;;;7.32;100.00;103871.28;5006722;28;20021;-74
2022/01/18 12:11:10;;;;;;;20.00;7.35;;;;;;;7.49;100.00;103871.00;5001353;28;20040;-74
2022/01/18 12:13:45;;;;;;;19.83;7.68;;;;;;;7.62;100.00;103868.13;5002509;28;20234;-74
2022/01/18 12:16:22;;;;;;;22.05;8.05;;;;;;;7.73;100.00;103860.81;5003951;28;20026;-74
2022/01/18 12:18:50;;;;;;;23.50;7.75;;;;;;;7.90;100.00;103851.59;5005771;28;20030;-74
2022/01/18 12:21:21;;;;;;;20.90;7.63;;;;;;;8.08;100.00;103850.38;5003349;28;20065;-73
2022/01/18 12:23:48;;;;;;;22.70;8.05;;;;;;;8.23;100.00;103854.56;5002353;28;20026;-74
2022/01/18 12:26:27;;;;;;;19.88;7.05;;;;;;;8.18;100.00;103846.63;4988115;28;20026;-74
2022/01/18 12:34:24;;;;;;;21.52;10.55;;;;;;;8.47;100.00;103837.13;5007397;28;20026;-74
2022/01/18 12:36:50;;;;;;;18.98;7.03;;;;;;;8.64;100.00;103839.44;5006644;28;20030;-74
2022/01/18 12:39:16;;;;;;;22.52;8.23;;;;;;;8.67;97.56;103828.66;5014700;28;20025;-73
2022/01/18 12:41:50;;;;;;;26.13;7.53;;;;;;;9.08;98.50;103833.13;5005832;28;20518;-74